sensor_id;sensor_type;location;lat;lon;timestamp;P1;durP1;ratioP1;P2;durP2;ratioP2
4430;SDS011;2228;48.140;11.488;2023-04-12T00:00:32;2.88;;;1.52;;
4430;SDS011;2228;48.140;11.488;2023-04-12T00:03:00;5.37;;;1.60;;
4430;SDS011;2228;48.140;11.488;2023-04-12T00:05:31;2.33;;;1.40;;
4430;SDS011;2228;48.140;11.488;2023-04-12T00:07:58;4.97;;;1.40;;
4430;SDS011;2228;48.140;11.488;2023-04-12T00:10:29;3.40;;;1.80;;
4430;SDS011;2228;48.140;11.488;2023-04-12T00:12:56;4.00;;;1.70;;
4430;SDS011;2228;48.140;11.488;2023-04-12T00:15:24;3.97;;;1.80;;
4430;SDS011;2228;48.140;11.488;2023-04-12T00:17:51;4.10;;;1.42;;
4430;SDS011;2228;48.140;11.488;2023-04-12T00:20:18;5.22;;;2.05;;
4430;SDS011;2228;48.140;11.488;2023-04-12T00:22:45;8.32;;;1.83;;
4430;SDS011;2228;48.140;11.488;2023-04-12T00:25:12;5.85;;;1.70;;
4430;SDS011;2228;48.140;11.488;2023-04-12T00:27:38;2.35;;;1.50;;
4430;SDS011;2228;48.140;11.488;2023-04-12T00:30:06;5.00;;;1.83;;
4430;SDS011;2228;48.140;11.488;2023-04-12T00:32:35;4.57;;;1.60;;
4430;SDS011;2228;48.140;11.488;2023-04-12T00:35:02;3.58;;;1.50;;
4430;SDS011;2228;48.140;11.488;2023-04-12T00:37:29;4.38;;;1.80;;
4430;SDS011;2228;48.140;11.488;2023-04-12T00:39:55;2.90;;;1.48;;
4430;SDS011;2228;48.140;11.488;2023-04-12T00:42:22;3.45;;;1.70;;
4430;SDS011;2228;48.140;11.488;2023-04-12T00:44:49;4.03;;;1.52;;
4430;SDS011;2228;48.140;11.488;2023-04-12T00:47:16;5.20;;;1.53;;
4430;SDS011;2228;48.140;11.488;2023-04-12T00:49:44;4.30;;;1.20;;
4430;SDS011;2228;48.140;11.488;2023-04-12T00:52:11;1.67;;;1.40;;
4430;SDS011;2228;48.140;11.488;2023-04-12T00:54:39;3.30;;;1.40;;
4430;SDS011;2228;48.140;11.488;2023-04-12T00:57:08;4.63;;;1.40;;
4430;SDS011;2228;48.140;11.488;2023-04-12T00:59:35;4.77;;;1.50;;
4430;SDS011;2228;48.140;11.488;2023-04-12T01:02:02;2.90;;;1.40;;
4430;SDS011;2228;48.140;11.488;2023-04-12T01:04:29;2.88;;;1.25;;
4430;SDS011;2228;48.140;11.488;2023-04-12T01:07:04;4.10;;;1.40;;
4430;SDS011;2228;48.140;11.488;2023-04-12T01:09:42;3.50;;;1.40;;
4430;SDS011;2228;48.140;11.488;2023-04-12T01:12:19;4.67;;;1.50;;
4430;SDS011;2228;48.140;11.488;2023-04-12T01:14:54;5.43;;;2.20;;
4430;SDS011;2228;48.140;11.488;2023-04-12T01:17:27;2.30;;;1.20;;
4430;SDS011;2228;48.140;11.488;2023-04-12T01:20:04;2.20;;;1.50;;
4430;SDS011;2228;48.140;11.488;2023-04-12T01:22:44;4.95;;;1.80;;
4430;SDS011;2228;48.140;11.488;2023-04-12T01:25:37;3.20;;;1.27;;
4430;SDS011;2228;48.140;11.488;2023-04-12T01:28:13;2.50;;;1.25;;
4430;SDS011;2228;48.140;11.488;2023-04-12T01:30:42;2.80;;;1.30;;
4430;SDS011;2228;48.140;11.488;2023-04-12T01:33:11;4.40;;;1.60;;
4430;SDS011;2228;48.140;11.488;2023-04-12T01:35:40;2.87;;;1.40;;
4430;SDS011;2228;48.140;11.488;2023-04-12T01:38:09;3.00;;;1.20;;
4430;SDS011;2228;48.140;11.488;2023-04-12T01:40:36;2.00;;;1.30;;
4430;SDS011;2228;48.140;11.488;2023-04-12T01:43:05;2.25;;;1.30;;
4430;SDS011;2228;48.140;11.488;2023-04-12T01:45:33;6.43;;;1.50;;
4430;SDS011;2228;48.140;11.488;2023-04-12T01:48:01;2.42;;;1.10;;
4430;SDS011;2228;48.140;11.488;2023-04-12T01:50:31;3.22;;;1.20;;
4430;SDS011;2228;48.140;11.488;2023-04-12T01:53:06;2.23;;;1.10;;
4430;SDS011;2228;48.140;11.488;2023-04-12T01:55:38;3.50;;;1.40;;
4430;SDS011;2228;48.140;11.488;2023-04-12T01:58:10;2.70;;;1.40;;
4430;SDS011;2228;48.140;11.488;2023-04-12T02:00:39;2.40;;;1.20;;
4430;SDS011;2228;48.140;11.488;2023-04-12T02:03:08;4.10;;;1.70;;
4430;SDS011;2228;48.140;11.488;2023-04-12T02:05:36;3.58;;;1.58;;
4430;SDS011;2228;48.140;11.488;2023-04-12T02:08:03;2.70;;;1.70;;
4430;SDS011;2228;48.140;11.488;2023-04-12T02:10:31;5.50;;;2.20;;
4430;SDS011;2228;48.140;11.488;2023-04-12T02:13:00;3.20;;;1.60;;
4430;SDS011;2228;48.140;11.488;2023-04-12T02:15:28;5.07;;;1.77;;
4430;SDS011;2228;48.140;11.488;2023-04-12T02:17:56;3.88;;;1.95;;
4430;SDS011;2228;48.140;11.488;2023-04-12T02:20:23;6.25;;;2.30;;
4430;SDS011;2228;48.140;11.488;2023-04-12T02:22:51;7.47;;;2.28;;
4430;SDS011;2228;48.140;11.488;2023-04-12T02:25:18;4.80;;;1.90;;
4430;SDS011;2228;48.140;11.488;2023-04-12T02:27:45;3.83;;;1.80;;
4430;SDS011;2228;48.140;11.488;2023-04-12T02:30:12;3.88;;;2.00;;
4430;SDS011;2228;48.140;11.488;2023-04-12T02:32:40;4.28;;;1.85;;
4430;SDS011;2228;48.140;11.488;2023-04-12T02:35:11;5.78;;;2.10;;
4430;SDS011;2228;48.140;11.488;2023-04-12T02:37:42;4.30;;;2.30;;
4430;SDS011;2228;48.140;11.488;2023-04-12T02:40:11;6.55;;;2.17;;
4430;SDS011;2228;48.140;11.488;2023-04-12T02:42:39;5.93;;;2.20;;
4430;SDS011;2228;48.140;11.488;2023-04-12T02:45:07;5.68;;;1.85;;
4430;SDS011;2228;48.140;11.488;2023-04-12T02:47:35;2.67;;;1.63;;
4430;SDS011;2228;48.140;11.488;2023-04-12T02:50:02;4.85;;;1.95;;
4430;SDS011;2228;48.140;11.488;2023-04-12T02:54:59;5.57;;;2.10;;
4430;SDS011;2228;48.140;11.488;2023-04-12T02:57:27;4.82;;;2.20;;
4430;SDS011;2228;48.140;11.488;2023-04-12T02:59:54;3.50;;;1.90;;
4430;SDS011;2228;48.140;11.488;2023-04-12T03:02:21;3.60;;;2.28;;
4430;SDS011;2228;48.140;11.488;2023-04-12T03:04:48;4.80;;;1.90;;
4430;SDS011;2228;48.140;11.488;2023-04-12T03:07:16;4.33;;;1.83;;
4430;SDS011;2228;48.140;11.488;2023-04-12T03:09:45;4.43;;;2.33;;
4430;SDS011;2228;48.140;11.488;2023-04-12T03:12:13;7.57;;;2.33;;
4430;SDS011;2228;48.140;11.488;2023-04-12T03:14:40;6.38;;;2.20;;
4430;SDS011;2228;48.140;11.488;2023-04-12T03:17:07;6.20;;;2.47;;
4430;SDS011;2228;48.140;11.488;2023-04-12T03:19:34;7.60;;;2.20;;
4430;SDS011;2228;48.140;11.488;2023-04-12T03:22:01;5.40;;;2.30;;
4430;SDS011;2228;48.140;11.488;2023-04-12T03:24:29;6.45;;;2.58;;
4430;SDS011;2228;48.140;11.488;2023-04-12T03:26:59;8.55;;;2.70;;
4430;SDS011;2228;48.140;11.488;2023-04-12T03:29:28;7.47;;;2.40;;
4430;SDS011;2228;48.140;11.488;2023-04-12T03:31:55;7.97;;;2.67;;
4430;SDS011;2228;48.140;11.488;2023-04-12T03:34:23;5.50;;;2.78;;
4430;SDS011;2228;48.140;11.488;2023-04-12T03:36:52;5.57;;;2.60;;
4430;SDS011;2228;48.140;11.488;2023-04-12T03:39:20;6.20;;;2.70;;
4430;SDS011;2228;48.140;11.488;2023-04-12T03:41:47;4.43;;;2.67;;
4430;SDS011;2228;48.140;11.488;2023-04-12T03:44:15;8.82;;;3.15;;
4430;SDS011;2228;48.140;11.488;2023-04-12T03:46:42;6.65;;;2.88;;
4430;SDS011;2228;48.140;11.488;2023-04-12T03:49:09;5.35;;;2.90;;
4430;SDS011;2228;48.140;11.488;2023-04-12T03:51:36;7.30;;;2.60;;
4430;SDS011;2228;48.140;11.488;2023-04-12T03:54:07;11.00;;;3.03;;
4430;SDS011;2228;48.140;11.488;2023-04-12T03:56:34;9.27;;;2.50;;
4430;SDS011;2228;48.140;11.488;2023-04-12T03:59:03;4.70;;;2.60;;
4430;SDS011;2228;48.140;11.488;2023-04-12T04:01:33;6.47;;;2.77;;
4430;SDS011;2228;48.140;11.488;2023-04-12T04:04:00;8.85;;;2.90;;
4430;SDS011;2228;48.140;11.488;2023-04-12T04:06:27;8.07;;;2.80;;
4430;SDS011;2228;48.140;11.488;2023-04-12T04:08:55;7.75;;;3.10;;
4430;SDS011;2228;48.140;11.488;2023-04-12T04:11:22;7.25;;;2.97;;
4430;SDS011;2228;48.140;11.488;2023-04-12T04:13:49;7.00;;;2.97;;
4430;SDS011;2228;48.140;11.488;2023-04-12T04:16:16;7.15;;;3.28;;
4430;SDS011;2228;48.140;11.488;2023-04-12T04:18:44;8.68;;;3.08;;
4430;SDS011;2228;48.140;11.488;2023-04-12T04:21:11;8.55;;;3.30;;
4430;SDS011;2228;48.140;11.488;2023-04-12T04:23:39;9.23;;;3.10;;
4430;SDS011;2228;48.140;11.488;2023-04-12T04:26:09;6.05;;;2.22;;
4430;SDS011;2228;48.140;11.488;2023-04-12T04:28:36;8.40;;;3.15;;
4430;SDS011;2228;48.140;11.488;2023-04-12T04:31:06;10.77;;;2.90;;
4430;SDS011;2228;48.140;11.488;2023-04-12T04:33:34;7.82;;;3.17;;
4430;SDS011;2228;48.140;11.488;2023-04-12T04:36:03;7.65;;;2.70;;
4430;SDS011;2228;48.140;11.488;2023-04-12T04:38:31;5.50;;;2.90;;
4430;SDS011;2228;48.140;11.488;2023-04-12T04:40:58;8.60;;;3.00;;
4430;SDS011;2228;48.140;11.488;2023-04-12T04:43:26;7.97;;;2.90;;
4430;SDS011;2228;48.140;11.488;2023-04-12T04:45:54;8.88;;;3.08;;
4430;SDS011;2228;48.140;11.488;2023-04-12T04:48:22;7.45;;;3.20;;
4430;SDS011;2228;48.140;11.488;2023-04-12T04:50:49;8.55;;;3.17;;
4430;SDS011;2228;48.140;11.488;2023-04-12T04:53:18;5.68;;;2.30;;
4430;SDS011;2228;48.140;11.488;2023-04-12T04:55:47;5.13;;;2.80;;
4430;SDS011;2228;48.140;11.488;2023-04-12T04:58:14;7.72;;;2.60;;
4430;SDS011;2228;48.140;11.488;2023-04-12T05:00:41;5.85;;;2.65;;
4430;SDS011;2228;48.140;11.488;2023-04-12T05:03:10;7.88;;;2.65;;
4430;SDS011;2228;48.140;11.488;2023-04-12T05:05:37;8.40;;;2.55;;
4430;SDS011;2228;48.140;11.488;2023-04-12T05:08:04;10.07;;;2.55;;
4430;SDS011;2228;48.140;11.488;2023-04-12T05:10:32;9.43;;;2.50;;
4430;SDS011;2228;48.140;11.488;2023-04-12T05:12:59;9.83;;;2.73;;
4430;SDS011;2228;48.140;11.488;2023-04-12T05:15:26;7.30;;;2.67;;
4430;SDS011;2228;48.140;11.488;2023-04-12T05:17:55;6.32;;;3.03;;
4430;SDS011;2228;48.140;11.488;2023-04-12T05:20:22;9.52;;;3.08;;
4430;SDS011;2228;48.140;11.488;2023-04-12T05:22:48;6.40;;;2.50;;
4430;SDS011;2228;48.140;11.488;2023-04-12T05:25:15;7.03;;;3.00;;
4430;SDS011;2228;48.140;11.488;2023-04-12T05:27:45;6.72;;;2.67;;
4430;SDS011;2228;48.140;11.488;2023-04-12T05:30:12;8.60;;;2.80;;
4430;SDS011;2228;48.140;11.488;2023-04-12T05:32:39;5.27;;;2.97;;
4430;SDS011;2228;48.140;11.488;2023-04-12T05:35:06;7.40;;;3.30;;
4430;SDS011;2228;48.140;11.488;2023-04-12T05:37:33;5.95;;;3.10;;
4430;SDS011;2228;48.140;11.488;2023-04-12T05:40:00;9.00;;;3.80;;
4430;SDS011;2228;48.140;11.488;2023-04-12T05:42:30;8.90;;;3.30;;
4430;SDS011;2228;48.140;11.488;2023-04-12T05:44:58;7.57;;;3.60;;
4430;SDS011;2228;48.140;11.488;2023-04-12T05:47:26;14.30;;;3.80;;
4430;SDS011;2228;48.140;11.488;2023-04-12T05:49:53;8.95;;;3.22;;
4430;SDS011;2228;48.140;11.488;2023-04-12T05:52:20;7.60;;;3.10;;
4430;SDS011;2228;48.140;11.488;2023-04-12T05:54:47;8.07;;;2.80;;
4430;SDS011;2228;48.140;11.488;2023-04-12T05:57:14;8.32;;;2.58;;
4430;SDS011;2228;48.140;11.488;2023-04-12T05:59:41;7.97;;;3.05;;
4430;SDS011;2228;48.140;11.488;2023-04-12T06:02:09;9.50;;;3.50;;
4430;SDS011;2228;48.140;11.488;2023-04-12T06:04:36;11.37;;;4.00;;
4430;SDS011;2228;48.140;11.488;2023-04-12T06:07:04;7.82;;;3.00;;
4430;SDS011;2228;48.140;11.488;2023-04-12T06:09:34;8.73;;;3.63;;
4430;SDS011;2228;48.140;11.488;2023-04-12T06:12:01;7.78;;;3.00;;
4430;SDS011;2228;48.140;11.488;2023-04-12T06:14:28;10.40;;;2.90;;
4430;SDS011;2228;48.140;11.488;2023-04-12T06:16:54;7.95;;;2.58;;
4430;SDS011;2228;48.140;11.488;2023-04-12T06:19:23;8.47;;;2.77;;
4430;SDS011;2228;48.140;11.488;2023-04-12T06:21:50;5.30;;;2.80;;
4430;SDS011;2228;48.140;11.488;2023-04-12T06:24:17;7.03;;;2.92;;
4430;SDS011;2228;48.140;11.488;2023-04-12T06:26:43;5.47;;;2.40;;
4430;SDS011;2228;48.140;11.488;2023-04-12T06:29:11;5.93;;;2.20;;
4430;SDS011;2228;48.140;11.488;2023-04-12T06:31:38;4.47;;;2.75;;
4430;SDS011;2228;48.140;11.488;2023-04-12T06:34:06;5.97;;;2.40;;
4430;SDS011;2228;48.140;11.488;2023-04-12T06:36:34;7.47;;;2.40;;
4430;SDS011;2228;48.140;11.488;2023-04-12T06:39:02;6.35;;;2.50;;
4430;SDS011;2228;48.140;11.488;2023-04-12T06:41:29;4.20;;;2.30;;
4430;SDS011;2228;48.140;11.488;2023-04-12T06:43:56;4.50;;;1.90;;
4430;SDS011;2228;48.140;11.488;2023-04-12T06:46:26;3.70;;;2.03;;
4430;SDS011;2228;48.140;11.488;2023-04-12T06:48:53;4.72;;;2.42;;
4430;SDS011;2228;48.140;11.488;2023-04-12T06:51:22;5.15;;;2.00;;
4430;SDS011;2228;48.140;11.488;2023-04-12T06:53:50;4.15;;;2.03;;
4430;SDS011;2228;48.140;11.488;2023-04-12T06:56:17;6.57;;;2.53;;
4430;SDS011;2228;48.140;11.488;2023-04-12T06:58:44;4.60;;;2.20;;
4430;SDS011;2228;48.140;11.488;2023-04-12T07:01:10;2.97;;;2.08;;
4430;SDS011;2228;48.140;11.488;2023-04-12T07:03:38;5.47;;;2.50;;
4430;SDS011;2228;48.140;11.488;2023-04-12T07:06:05;5.43;;;2.20;;
4430;SDS011;2228;48.140;11.488;2023-04-12T07:08:33;3.65;;;1.80;;
4430;SDS011;2228;48.140;11.488;2023-04-12T07:11:02;2.30;;;1.80;;
4430;SDS011;2228;48.140;11.488;2023-04-12T07:13:29;6.23;;;2.10;;
4430;SDS011;2228;48.140;11.488;2023-04-12T07:15:56;5.43;;;1.83;;
4430;SDS011;2228;48.140;11.488;2023-04-12T07:18:24;4.57;;;1.90;;
4430;SDS011;2228;48.140;11.488;2023-04-12T07:20:53;4.30;;;1.75;;
4430;SDS011;2228;48.140;11.488;2023-04-12T07:23:20;6.40;;;2.28;;
4430;SDS011;2228;48.140;11.488;2023-04-12T07:25:47;5.43;;;2.10;;
4430;SDS011;2228;48.140;11.488;2023-04-12T07:28:16;7.00;;;2.10;;
4430;SDS011;2228;48.140;11.488;2023-04-12T07:30:43;6.17;;;2.50;;
4430;SDS011;2228;48.140;11.488;2023-04-12T07:33:10;5.47;;;2.20;;
4430;SDS011;2228;48.140;11.488;2023-04-12T07:35:37;6.78;;;2.47;;
4430;SDS011;2228;48.140;11.488;2023-04-12T07:38:04;7.83;;;2.67;;
4430;SDS011;2228;48.140;11.488;2023-04-12T07:40:31;2.92;;;2.00;;
4430;SDS011;2228;48.140;11.488;2023-04-12T07:42:58;5.00;;;2.03;;
4430;SDS011;2228;48.140;11.488;2023-04-12T07:45:28;4.18;;;2.00;;
4430;SDS011;2228;48.140;11.488;2023-04-12T07:47:55;5.20;;;2.00;;
4430;SDS011;2228;48.140;11.488;2023-04-12T07:50:22;5.65;;;2.35;;
4430;SDS011;2228;48.140;11.488;2023-04-12T07:52:49;3.70;;;2.00;;
4430;SDS011;2228;48.140;11.488;2023-04-12T07:55:16;2.97;;;1.70;;
4430;SDS011;2228;48.140;11.488;2023-04-12T07:57:43;7.83;;;2.50;;
4430;SDS011;2228;48.140;11.488;2023-04-12T08:00:10;6.00;;;2.38;;
4430;SDS011;2228;48.140;11.488;2023-04-12T08:02:38;3.17;;;2.00;;
4430;SDS011;2228;48.140;11.488;2023-04-12T08:05:06;3.50;;;1.92;;
4430;SDS011;2228;48.140;11.488;2023-04-12T08:07:34;5.03;;;2.30;;
4430;SDS011;2228;48.140;11.488;2023-04-12T08:10:01;3.70;;;2.00;;
4430;SDS011;2228;48.140;11.488;2023-04-12T08:12:28;5.53;;;2.15;;
4430;SDS011;2228;48.140;11.488;2023-04-12T08:14:55;3.13;;;2.10;;
4430;SDS011;2228;48.140;11.488;2023-04-12T08:17:21;5.65;;;2.35;;
4430;SDS011;2228;48.140;11.488;2023-04-12T08:19:52;4.50;;;1.90;;
4430;SDS011;2228;48.140;11.488;2023-04-12T08:22:19;5.72;;;2.30;;
4430;SDS011;2228;48.140;11.488;2023-04-12T08:27:23;4.55;;;2.17;;
4430;SDS011;2228;48.140;11.488;2023-04-12T08:29:50;3.20;;;1.90;;
4430;SDS011;2228;48.140;11.488;2023-04-12T08:32:16;4.47;;;2.00;;
4430;SDS011;2228;48.140;11.488;2023-04-12T08:34:43;3.77;;;2.00;;
4430;SDS011;2228;48.140;11.488;2023-04-12T08:37:12;4.57;;;2.20;;
4430;SDS011;2228;48.140;11.488;2023-04-12T08:39:39;6.80;;;1.75;;
4430;SDS011;2228;48.140;11.488;2023-04-12T08:42:06;4.03;;;2.00;;
4430;SDS011;2228;48.140;11.488;2023-04-12T08:44:33;3.55;;;1.67;;
4430;SDS011;2228;48.140;11.488;2023-04-12T08:47:02;5.40;;;2.30;;
4430;SDS011;2228;48.140;11.488;2023-04-12T08:49:30;3.92;;;1.38;;
4430;SDS011;2228;48.140;11.488;2023-04-12T08:51:58;5.00;;;1.75;;
4430;SDS011;2228;48.140;11.488;2023-04-12T08:54:28;3.63;;;1.70;;
4430;SDS011;2228;48.140;11.488;2023-04-12T08:56:55;3.40;;;1.40;;
4430;SDS011;2228;48.140;11.488;2023-04-12T08:59:24;6.22;;;2.00;;
4430;SDS011;2228;48.140;11.488;2023-04-12T09:01:53;4.25;;;1.48;;
4430;SDS011;2228;48.140;11.488;2023-04-12T09:04:21;5.00;;;2.00;;
4430;SDS011;2228;48.140;11.488;2023-04-12T09:06:48;6.90;;;1.75;;
4430;SDS011;2228;48.140;11.488;2023-04-12T09:09:15;2.22;;;1.40;;
4430;SDS011;2228;48.140;11.488;2023-04-12T09:11:43;5.15;;;2.10;;
4430;SDS011;2228;48.140;11.488;2023-04-12T09:14:20;6.75;;;2.10;;
4430;SDS011;2228;48.140;11.488;2023-04-12T09:16:47;7.78;;;2.10;;
4430;SDS011;2228;48.140;11.488;2023-04-12T09:19:14;7.60;;;2.10;;
4430;SDS011;2228;48.140;11.488;2023-04-12T09:21:50;3.00;;;1.50;;
4430;SDS011;2228;48.140;11.488;2023-04-12T09:24:18;2.70;;;1.60;;
4430;SDS011;2228;48.140;11.488;2023-04-12T09:26:49;4.40;;;1.83;;
4430;SDS011;2228;48.140;11.488;2023-04-12T09:29:27;2.85;;;1.85;;
4430;SDS011;2228;48.140;11.488;2023-04-12T09:31:56;2.40;;;1.65;;
4430;SDS011;2228;48.140;11.488;2023-04-12T09:34:25;3.67;;;1.40;;
4430;SDS011;2228;48.140;11.488;2023-04-12T09:36:52;4.10;;;1.90;;
4430;SDS011;2228;48.140;11.488;2023-04-12T09:39:19;5.07;;;1.80;;
4430;SDS011;2228;48.140;11.488;2023-04-12T09:42:03;3.30;;;1.60;;
4430;SDS011;2228;48.140;11.488;2023-04-12T09:44:31;2.28;;;1.33;;
4430;SDS011;2228;48.140;11.488;2023-04-12T09:46:59;4.13;;;1.60;;
4430;SDS011;2228;48.140;11.488;2023-04-12T09:49:37;2.20;;;1.50;;
4430;SDS011;2228;48.140;11.488;2023-04-12T09:52:05;4.05;;;1.40;;
4430;SDS011;2228;48.140;11.488;2023-04-12T09:54:36;1.70;;;1.27;;
4430;SDS011;2228;48.140;11.488;2023-04-12T09:57:06;3.75;;;1.27;;
4430;SDS011;2228;48.140;11.488;2023-04-12T09:59:34;1.70;;;1.02;;
4430;SDS011;2228;48.140;11.488;2023-04-12T10:02:04;2.05;;;1.00;;
4430;SDS011;2228;48.140;11.488;2023-04-12T10:04:36;1.63;;;1.40;;
4430;SDS011;2228;48.140;11.488;2023-04-12T10:07:05;3.15;;;2.00;;
4430;SDS011;2228;48.140;11.488;2023-04-12T10:09:32;3.30;;;1.30;;
4430;SDS011;2228;48.140;11.488;2023-04-12T10:12:00;2.80;;;1.20;;
4430;SDS011;2228;48.140;11.488;2023-04-12T10:14:30;1.60;;;1.08;;
4430;SDS011;2228;48.140;11.488;2023-04-12T10:16:58;2.33;;;1.20;;
4430;SDS011;2228;48.140;11.488;2023-04-12T10:19:26;2.40;;;1.05;;
4430;SDS011;2228;48.140;11.488;2023-04-12T10:21:54;5.63;;;3.20;;
4430;SDS011;2228;48.140;11.488;2023-04-12T10:24:22;4.90;;;2.53;;
4430;SDS011;2228;48.140;11.488;2023-04-12T10:26:49;1.67;;;1.10;;
4430;SDS011;2228;48.140;11.488;2023-04-12T10:29:21;2.92;;;1.50;;
4430;SDS011;2228;48.140;11.488;2023-04-12T10:31:50;1.80;;;0.90;;
4430;SDS011;2228;48.140;11.488;2023-04-12T10:34:22;1.10;;;0.80;;
4430;SDS011;2228;48.140;11.488;2023-04-12T10:36:50;1.38;;;0.98;;
4430;SDS011;2228;48.140;11.488;2023-04-12T10:39:19;1.30;;;1.05;;
4430;SDS011;2228;48.140;11.488;2023-04-12T10:42:14;2.30;;;0.80;;
4430;SDS011;2228;48.140;11.488;2023-04-12T10:44:49;1.70;;;1.10;;
4430;SDS011;2228;48.140;11.488;2023-04-12T10:50:23;4.35;;;3.10;;
4430;SDS011;2228;48.140;11.488;2023-04-12T10:55:46;1.20;;;0.90;;
4430;SDS011;2228;48.140;11.488;2023-04-12T11:01:13;2.60;;;0.80;;
4430;SDS011;2228;48.140;11.488;2023-04-12T11:06:40;1.20;;;0.80;;
4430;SDS011;2228;48.140;11.488;2023-04-12T11:09:25;2.00;;;1.00;;
4430;SDS011;2228;48.140;11.488;2023-04-12T11:11:57;2.30;;;2.10;;
4430;SDS011;2228;48.140;11.488;2023-04-12T11:14:36;1.98;;;1.50;;
4430;SDS011;2228;48.140;11.488;2023-04-12T11:17:20;1.30;;;0.90;;
4430;SDS011;2228;48.140;11.488;2023-04-12T11:19:55;1.55;;;1.00;;
4430;SDS011;2228;48.140;11.488;2023-04-12T11:22:25;3.17;;;2.00;;
4430;SDS011;2228;48.140;11.488;2023-04-12T11:24:54;3.30;;;1.00;;
4430;SDS011;2228;48.140;11.488;2023-04-12T11:27:22;2.27;;;1.00;;
4430;SDS011;2228;48.140;11.488;2023-04-12T11:29:50;2.47;;;0.90;;
4430;SDS011;2228;48.140;11.488;2023-04-12T11:32:20;1.90;;;1.00;;
4430;SDS011;2228;48.140;11.488;2023-04-12T11:34:48;3.00;;;2.38;;
4430;SDS011;2228;48.140;11.488;2023-04-12T11:37:17;3.60;;;1.80;;
4430;SDS011;2228;48.140;11.488;2023-04-12T11:39:48;1.90;;;1.10;;
4430;SDS011;2228;48.140;11.488;2023-04-12T11:42:17;3.40;;;1.20;;
4430;SDS011;2228;48.140;11.488;2023-04-12T11:44:46;1.33;;;0.93;;
4430;SDS011;2228;48.140;11.488;2023-04-12T11:47:14;1.58;;;1.10;;
4430;SDS011;2228;48.140;11.488;2023-04-12T11:49:43;2.70;;;1.40;;
4430;SDS011;2228;48.140;11.488;2023-04-12T11:52:10;3.70;;;1.08;;
4430;SDS011;2228;48.140;11.488;2023-04-12T11:54:40;1.97;;;1.30;;
4430;SDS011;2228;48.140;11.488;2023-04-12T11:57:11;2.58;;;1.33;;
4430;SDS011;2228;48.140;11.488;2023-04-12T11:59:38;2.20;;;1.10;;
4430;SDS011;2228;48.140;11.488;2023-04-12T12:02:08;1.77;;;0.88;;
4430;SDS011;2228;48.140;11.488;2023-04-12T12:04:36;4.47;;;0.90;;
4430;SDS011;2228;48.140;11.488;2023-04-12T12:07:04;1.70;;;1.00;;
4430;SDS011;2228;48.140;11.488;2023-04-12T12:09:32;2.00;;;1.10;;
4430;SDS011;2228;48.140;11.488;2023-04-12T12:11:59;2.10;;;1.00;;
4430;SDS011;2228;48.140;11.488;2023-04-12T12:14:28;1.13;;;0.80;;
4430;SDS011;2228;48.140;11.488;2023-04-12T12:16:59;3.00;;;1.00;;
4430;SDS011;2228;48.140;11.488;2023-04-12T12:19:28;3.35;;;1.00;;
4430;SDS011;2228;48.140;11.488;2023-04-12T12:22:12;1.25;;;0.90;;
4430;SDS011;2228;48.140;11.488;2023-04-12T12:24:44;2.90;;;1.00;;
4430;SDS011;2228;48.140;11.488;2023-04-12T12:27:12;2.50;;;1.00;;
4430;SDS011;2228;48.140;11.488;2023-04-12T12:29:47;1.20;;;1.00;;
4430;SDS011;2228;48.140;11.488;2023-04-12T12:32:16;1.98;;;1.00;;
4430;SDS011;2228;48.140;11.488;2023-04-12T12:34:53;1.23;;;0.90;;
4430;SDS011;2228;48.140;11.488;2023-04-12T12:37:24;3.90;;;0.85;;
4430;SDS011;2228;48.140;11.488;2023-04-12T12:39:59;2.60;;;1.00;;
4430;SDS011;2228;48.140;11.488;2023-04-12T12:42:32;2.20;;;1.00;;
4430;SDS011;2228;48.140;11.488;2023-04-12T12:45:01;1.30;;;0.95;;
4430;SDS011;2228;48.140;11.488;2023-04-12T12:47:29;1.30;;;0.90;;
4430;SDS011;2228;48.140;11.488;2023-04-12T12:49:56;1.45;;;0.80;;
4430;SDS011;2228;48.140;11.488;2023-04-12T12:52:23;1.27;;;0.80;;
4430;SDS011;2228;48.140;11.488;2023-04-12T12:54:50;1.20;;;0.70;;
4430;SDS011;2228;48.140;11.488;2023-04-12T12:57:17;1.63;;;0.80;;
4430;SDS011;2228;48.140;11.488;2023-04-12T12:59:44;1.25;;;0.70;;
4430;SDS011;2228;48.140;11.488;2023-04-12T13:02:12;3.10;;;1.10;;
4430;SDS011;2228;48.140;11.488;2023-04-12T13:04:42;2.63;;;0.90;;
4430;SDS011;2228;48.140;11.488;2023-04-12T13:07:09;1.80;;;0.70;;
4430;SDS011;2228;48.140;11.488;2023-04-12T13:09:36;1.20;;;1.00;;
4430;SDS011;2228;48.140;11.488;2023-04-12T13:12:02;2.88;;;1.00;;
4430;SDS011;2228;48.140;11.488;2023-04-12T13:14:29;1.20;;;0.80;;
4430;SDS011;2228;48.140;11.488;2023-04-12T13:16:56;1.30;;;0.70;;
4430;SDS011;2228;48.140;11.488;2023-04-12T13:19:24;2.60;;;0.90;;
4430;SDS011;2228;48.140;11.488;2023-04-12T13:21:51;2.30;;;1.02;;
4430;SDS011;2228;48.140;11.488;2023-04-12T13:24:18;2.50;;;1.00;;
4430;SDS011;2228;48.140;11.488;2023-04-12T13:26:45;1.63;;;0.80;;
4430;SDS011;2228;48.140;11.488;2023-04-12T13:29:12;1.80;;;1.05;;
4430;SDS011;2228;48.140;11.488;2023-04-12T13:31:39;3.30;;;1.20;;
4430;SDS011;2228;48.140;11.488;2023-04-12T13:34:06;2.20;;;1.00;;
4430;SDS011;2228;48.140;11.488;2023-04-12T13:36:35;1.60;;;0.90;;
4430;SDS011;2228;48.140;11.488;2023-04-12T13:39:01;2.28;;;1.05;;
4430;SDS011;2228;48.140;11.488;2023-04-12T13:41:28;3.60;;;1.17;;
4430;SDS011;2228;48.140;11.488;2023-04-12T13:43:58;1.90;;;1.10;;
4430;SDS011;2228;48.140;11.488;2023-04-12T13:46:26;4.47;;;1.00;;
4430;SDS011;2228;48.140;11.488;2023-04-12T13:48:53;3.22;;;1.30;;
4430;SDS011;2228;48.140;11.488;2023-04-12T13:51:20;2.10;;;1.00;;
4430;SDS011;2228;48.140;11.488;2023-04-12T13:53:48;3.25;;;1.20;;
4430;SDS011;2228;48.140;11.488;2023-04-12T13:56:15;1.60;;;1.00;;
4430;SDS011;2228;48.140;11.488;2023-04-12T13:58:42;2.45;;;1.10;;
4430;SDS011;2228;48.140;11.488;2023-04-12T14:01:09;6.35;;;1.30;;
4430;SDS011;2228;48.140;11.488;2023-04-12T14:03:37;2.30;;;1.08;;
4430;SDS011;2228;48.140;11.488;2023-04-12T14:06:05;1.60;;;0.90;;
4430;SDS011;2228;48.140;11.488;2023-04-12T14:08:33;4.03;;;1.00;;
4430;SDS011;2228;48.140;11.488;2023-04-12T14:11:02;2.00;;;1.13;;
4430;SDS011;2228;48.140;11.488;2023-04-12T14:13:29;4.50;;;1.50;;
4430;SDS011;2228;48.140;11.488;2023-04-12T14:15:56;2.75;;;1.00;;
4430;SDS011;2228;48.140;11.488;2023-04-12T14:18:23;2.30;;;1.07;;
4430;SDS011;2228;48.140;11.488;2023-04-12T14:20:50;1.63;;;1.20;;
4430;SDS011;2228;48.140;11.488;2023-04-12T14:23:18;3.17;;;1.17;;
4430;SDS011;2228;48.140;11.488;2023-04-12T14:25:47;2.55;;;1.00;;
4430;SDS011;2228;48.140;11.488;2023-04-12T14:28:16;2.45;;;1.20;;
4430;SDS011;2228;48.140;11.488;2023-04-12T14:30:46;6.15;;;1.15;;
4430;SDS011;2228;48.140;11.488;2023-04-12T14:33:14;3.05;;;1.00;;
4430;SDS011;2228;48.140;11.488;2023-04-12T14:35:41;2.90;;;1.20;;
4430;SDS011;2228;48.140;11.488;2023-04-12T14:38:08;5.30;;;1.25;;
4430;SDS011;2228;48.140;11.488;2023-04-12T14:40:35;1.90;;;0.90;;
4430;SDS011;2228;48.140;11.488;2023-04-12T14:43:02;1.90;;;1.00;;
4430;SDS011;2228;48.140;11.488;2023-04-12T14:45:30;1.70;;;1.10;;
4430;SDS011;2228;48.140;11.488;2023-04-12T14:47:57;3.45;;;1.10;;
4430;SDS011;2228;48.140;11.488;2023-04-12T14:50:24;2.90;;;1.00;;
4430;SDS011;2228;48.140;11.488;2023-04-12T14:52:51;3.20;;;1.10;;
4430;SDS011;2228;48.140;11.488;2023-04-12T14:55:18;4.68;;;1.10;;
4430;SDS011;2228;48.140;11.488;2023-04-12T14:57:45;1.83;;;0.80;;
4430;SDS011;2228;48.140;11.488;2023-04-12T15:00:12;1.80;;;0.80;;
4430;SDS011;2228;48.140;11.488;2023-04-12T15:02:41;2.67;;;0.90;;
4430;SDS011;2228;48.140;11.488;2023-04-12T15:05:10;5.43;;;1.00;;
4430;SDS011;2228;48.140;11.488;2023-04-12T15:07:36;2.35;;;0.80;;
4430;SDS011;2228;48.140;11.488;2023-04-12T15:10:04;2.10;;;1.00;;
4430;SDS011;2228;48.140;11.488;2023-04-12T15:12:31;1.50;;;0.90;;
4430;SDS011;2228;48.140;11.488;2023-04-12T15:14:59;2.22;;;1.10;;
4430;SDS011;2228;48.140;11.488;2023-04-12T15:17:28;3.00;;;1.10;;
4430;SDS011;2228;48.140;11.488;2023-04-12T15:20:00;2.47;;;1.20;;
4430;SDS011;2228;48.140;11.488;2023-04-12T15:22:33;3.70;;;1.05;;
4430;SDS011;2228;48.140;11.488;2023-04-12T15:25:00;1.43;;;0.90;;